Terminal Aerodrome Forecast
Issued by NWS Knoxville/Tri Cities, TN

Home | Current Version | Previous Version | Text Only | Print | Product List | Glossary On
Versions: 1 2 3 4 5 6 7 8 9 10 11 12 13 14 15 16 17 18 19 20 21 22 23 24 25 26
000
FTUS44 KMRX 290520
TAFTYS
TAF
KTYS 290520Z 2906/3006 02008KT P6SM BKN100
     FM290800 31004KT P6SM BKN070
     FM291100 28007KT P6SM BKN035
     FM291500 27010KT P6SM BKN045=

USA.gov is the U.S. government's official web portal to all federal, state and local government web resources and services.